Time;durP1;ratioP1;P1;durP2;ratioP2;P2;SDS_P1;SDS_P2;PMS_P1;PMS_P2;Temp;Humidity;BMP_temperature;BMP_pressure;BME280_temperature;BME280_humidity;BME280_pressure;Samples;Min_cycle;Max_cycle;Signal;HPM_P1;HPM_P2
2021/12/30 00:02:16;;;;;;;25.90;12.40;;;5.80;99.90;;;;;;5108748;28;20215;-82
2021/12/30 00:04:42;;;;;;;23.07;10.70;;;5.80;99.90;;;;;;5111167;28;20172;-82
2021/12/30 00:07:09;;;;;;;24.37;11.70;;;5.80;99.90;;;;;;5110746;28;20496;-82
2021/12/30 00:09:36;;;;;;;20.00;11.77;;;5.80;99.90;;;;;;5112170;28;20190;-82
2021/12/30 00:12:02;;;;;;;30.67;14.30;;;5.90;99.90;;;;;;5112283;28;20417;-85
2021/12/30 00:14:28;;;;;;;27.90;13.23;;;5.90;99.90;;;;;;5094519;28;20951;-83
2021/12/30 00:16:53;;;;;;;24.83;12.63;;;5.90;99.90;;;;;;5106218;28;20471;-82
2021/12/30 00:19:19;;;;;;;30.73;13.53;;;5.90;99.90;;;;;;5111343;28;20167;-83
2021/12/30 00:21:45;;;;;;;20.97;10.47;;;5.90;99.90;;;;;;5112880;28;20264;-82
2021/12/30 00:24:11;;;;;;;23.00;12.27;;;5.90;99.90;;;;;;5112336;28;20169;-82
2021/12/30 00:26:37;;;;;;;14.90;9.50;;;6.00;99.90;;;;;;5112934;28;20206;-82
2021/12/30 00:29:03;;;;;;;16.80;8.90;;;6.00;99.90;;;;;;5112944;28;20918;-81
2021/12/30 00:31:28;;;;;;;17.60;8.00;;;6.00;99.90;;;;;;5113091;28;20445;-81
2021/12/30 00:33:54;;;;;;;17.87;10.00;;;6.10;99.90;;;;;;5112972;28;20507;-83
2021/12/30 00:36:20;;;;;;;12.20;8.23;;;6.10;99.90;;;;;;5112644;28;20454;-82
2021/12/30 00:38:47;;;;;;;14.37;8.67;;;6.10;99.90;;;;;;5112807;28;20578;-81
2021/12/30 00:41:13;;;;;;;17.37;7.83;;;6.10;99.90;;;;;;5112908;28;20253;-81
2021/12/30 00:43:40;;;;;;;12.40;7.10;;;6.20;99.90;;;;;;5112738;28;20881;-81
2021/12/30 00:46:07;;;;;;;11.97;5.33;;;6.30;99.90;;;;;;5094146;28;20449;-83
2021/12/30 00:48:33;;;;;;;13.13;7.87;;;6.40;99.90;;;;;;5101548;28;20651;-81
2021/12/30 00:50:59;;;;;;;15.13;7.03;;;6.40;99.90;;;;;;5099173;28;20498;-81
2021/12/30 00:53:25;;;;;;;13.67;6.70;;;6.40;99.90;;;;;;5092323;28;20509;-82
2021/12/30 00:55:51;;;;;;;17.07;7.60;;;6.50;99.90;;;;;;5092408;28;20171;-82
2021/12/30 00:58:17;;;;;;;12.70;7.70;;;6.60;99.90;;;;;;5092279;28;20183;-83
2021/12/30 01:00:44;;;;;;;16.50;8.73;;;6.60;99.90;;;;;;5092239;28;20792;-82
2021/12/30 01:03:11;;;;;;;12.37;6.10;;;6.60;99.90;;;;;;5092207;28;20168;-82
2021/12/30 01:05:37;;;;;;;14.40;8.30;;;6.60;99.90;;;;;;5095268;28;20450;-83
2021/12/30 01:08:04;;;;;;;14.00;7.33;;;6.70;99.90;;;;;;5094262;28;20845;-84
2021/12/30 01:10:30;;;;;;;14.70;8.63;;;6.70;99.90;;;;;;5112606;28;20247;-81
2021/12/30 01:13:00;;;;;;;13.97;7.30;;;6.70;99.90;;;;;;5094040;28;20429;-83
2021/12/30 01:15:34;;;;;;;16.57;8.70;;;6.70;99.90;;;;;;5112009;28;20415;-82
2021/12/30 01:20:47;;;;;;;23.20;12.17;;;6.80;99.90;;;;;;5112362;28;20923;-81
2021/12/30 01:23:12;;;;;;;18.33;9.43;;;6.70;99.90;;;;;;5112484;28;20424;-81
2021/12/30 01:25:38;;;;;;;20.07;10.50;;;6.80;99.90;;;;;;5112335;28;20418;-81
2021/12/30 01:28:04;;;;;;;25.07;12.77;;;6.90;99.90;;;;;;5112317;28;20687;-81
2021/12/30 01:30:29;;;;;;;24.07;11.87;;;7.00;99.90;;;;;;5112368;28;20173;-82
2021/12/30 01:32:55;;;;;;;24.20;12.37;;;7.00;99.90;;;;;;5099341;28;20329;-83
2021/12/30 01:35:23;;;;;;;28.13;13.57;;;7.00;99.90;;;;;;5091925;28;20165;-82
2021/12/30 01:37:50;;;;;;;21.50;12.27;;;7.00;99.90;;;;;;5091379;28;20212;-81
2021/12/30 01:40:17;;;;;;;28.37;14.73;;;7.10;99.90;;;;;;5091843;28;20972;-82
2021/12/30 01:42:43;;;;;;;25.67;13.10;;;7.10;99.90;;;;;;5091816;28;20470;-81
2021/12/30 01:45:11;;;;;;;28.80;12.90;;;7.20;99.90;;;;;;5091804;28;20406;-82
2021/12/30 01:47:42;;;;;;;25.57;14.17;;;7.30;99.90;;;;;;5108372;28;20908;-84
2021/12/30 01:50:08;;;;;;;39.97;15.17;;;7.30;99.90;;;;;;5091829;28;20461;-83
2021/12/30 01:52:34;;;;;;;22.80;14.40;;;7.40;99.90;;;;;;5102423;28;20470;-83
2021/12/30 01:55:00;;;;;;;34.33;13.40;;;7.40;99.90;;;;;;5112010;28;20762;-82
2021/12/30 01:57:25;;;;;;;26.00;14.20;;;7.50;99.90;;;;;;5110563;28;20793;-82
2021/12/30 01:59:51;;;;;;;23.63;12.10;;;7.50;99.90;;;;;;5091724;28;20603;-82
2021/12/30 02:02:17;;;;;;;29.77;12.73;;;7.60;99.90;;;;;;5091551;28;20564;-82
2021/12/30 02:04:42;;;;;;;31.17;13.50;;;7.50;99.90;;;;;;5091580;28;20180;-83
2021/12/30 02:07:09;;;;;;;32.73;14.10;;;7.60;99.90;;;;;;5091293;28;20650;-83
2021/12/30 02:09:35;;;;;;;29.97;14.10;;;7.60;99.90;;;;;;5091643;28;20162;-83
2021/12/30 02:12:02;;;;;;;33.87;14.83;;;7.60;99.90;;;;;;5091473;28;20498;-83
2021/12/30 02:14:32;;;;;;;33.57;14.70;;;7.70;99.90;;;;;;5106997;28;20419;-83
2021/12/30 02:16:58;;;;;;;31.53;14.30;;;7.60;99.90;;;;;;5111924;28;20417;-82
2021/12/30 02:19:24;;;;;;;35.43;14.93;;;7.60;99.90;;;;;;5111982;28;20761;-82
2021/12/30 02:21:49;;;;;;;30.00;15.13;;;7.60;99.90;;;;;;5111458;28;20215;-82
2021/12/30 02:24:15;;;;;;;28.20;13.73;;;7.70;99.90;;;;;;5111861;28;20173;-82
2021/12/30 02:26:40;;;;;;;32.70;13.63;;;7.70;99.90;;;;;;5111856;28;20165;-83
2021/12/30 02:29:06;;;;;;;32.10;13.70;;;7.80;99.90;;;;;;5115594;28;20176;-82
2021/12/30 02:31:32;;;;;;;25.80;12.23;;;7.90;99.90;;;;;;5115468;28;20547;-82
2021/12/30 02:33:58;;;;;;;27.10;13.73;;;7.90;99.90;;;;;;5115449;28;20172;-82
2021/12/30 02:36:32;;;;;;;36.63;15.47;;;7.90;99.90;;;;;;5115025;28;20652;-82
2021/12/30 02:38:59;;;;;;;34.33;15.10;;;8.00;99.90;;;;;;5115206;28;20506;-83
2021/12/30 02:41:27;;;;;;;28.77;13.60;;;8.00;99.90;;;;;;5082156;28;20472;-82
2021/12/30 02:43:52;;;;;;;34.63;13.20;;;7.90;99.90;;;;;;5094658;28;20407;-82
2021/12/30 02:46:26;;;;;;;26.90;16.00;;;7.90;99.90;;;;;;5103530;28;20426;-82
2021/12/30 02:48:52;;;;;;;27.53;13.07;;;7.90;99.90;;;;;;5103765;28;20174;-82
2021/12/30 02:51:19;;;;;;;24.73;11.07;;;7.90;99.90;;;;;;5094990;28;20909;-82
2021/12/30 02:53:44;;;;;;;33.23;12.40;;;7.90;99.90;;;;;;5115096;28;20417;-82
2021/12/30 02:56:10;;;;;;;24.50;9.97;;;8.00;99.90;;;;;;5115061;28;20501;-82
2021/12/30 02:58:35;;;;;;;24.97;10.73;;;8.00;99.90;;;;;;5096254;28;20173;-82
2021/12/30 03:01:24;;;;;;;35.67;13.77;;;7.90;99.90;;;;;;5094267;28;20209;-80
2021/12/30 03:03:50;;;;;;;23.70;10.60;;;8.00;99.90;;;;;;5094351;28;20188;-82
2021/12/30 03:06:16;;;;;;;30.67;10.00;;;7.90;99.90;;;;;;5101841;28;20406;-82
2021/12/30 03:08:45;;;;;;;25.20;10.67;;;7.90;99.90;;;;;;5114686;28;20168;-82
2021/12/30 03:11:10;;;;;;;28.23;9.70;;;8.00;99.90;;;;;;5114675;28;20505;-82
2021/12/30 03:13:40;;;;;;;24.80;9.03;;;8.00;99.90;;;;;;5114613;28;20538;-83
2021/12/30 03:16:12;;;;;;;29.20;10.00;;;8.00;99.90;;;;;;5114642;28;20169;-81
2021/12/30 03:18:40;;;;;;;35.13;10.50;;;8.00;99.90;;;;;;5114600;28;20418;-82
2021/12/30 03:21:08;;;;;;;28.90;8.63;;;8.00;99.90;;;;;;5114093;28;20462;-81
2021/12/30 03:23:33;;;;;;;22.80;8.50;;;8.00;99.90;;;;;;5114360;28;20773;-81
2021/12/30 03:25:59;;;;;;;19.07;8.60;;;8.00;99.90;;;;;;5114337;28;20410;-81
2021/12/30 03:28:25;;;;;;;19.37;8.00;;;8.00;99.90;;;;;;5096136;28;20273;-81
2021/12/30 03:30:51;;;;;;;20.57;6.97;;;8.10;99.90;;;;;;5114298;28;20440;-81
2021/12/30 03:33:20;;;;;;;18.60;6.97;;;8.00;99.90;;;;;;5114155;28;20290;-81
2021/12/30 03:35:46;;;;;;;19.90;8.30;;;8.10;99.90;;;;;;5109371;28;20196;-81
2021/12/30 03:38:12;;;;;;;20.53;6.67;;;8.10;99.90;;;;;;5096913;28;20467;-81
2021/12/30 03:40:38;;;;;;;23.67;7.27;;;8.10;99.90;;;;;;5101829;28;20415;-84
2021/12/30 03:43:03;;;;;;;19.43;7.80;;;8.00;99.90;;;;;;5096759;28;20779;-82
2021/12/30 03:45:29;;;;;;;18.40;6.27;;;8.00;99.90;;;;;;5096177;28;20661;-82
2021/12/30 03:47:55;;;;;;;16.33;5.53;;;7.90;99.90;;;;;;5115275;28;20189;-82
2021/12/30 03:50:27;;;;;;;16.27;7.40;;;7.90;99.90;;;;;;5087091;28;20427;-81
2021/12/30 03:52:56;;;;;;;22.93;7.40;;;7.90;99.90;;;;;;5094780;28;20261;-81
2021/12/30 03:55:23;;;;;;;24.87;6.67;;;7.80;99.90;;;;;;5094839;28;20415;-81
2021/12/30 03:57:50;;;;;;;20.50;5.83;;;7.70;99.90;;;;;;5115072;28;20496;-82
2021/12/30 04:00:17;;;;;;;21.03;7.00;;;7.60;99.90;;;;;;5115185;28;20415;-82
2021/12/30 04:02:43;;;;;;;22.97;6.17;;;7.60;99.90;;;;;;5115133;28;20462;-83
2021/12/30 04:05:09;;;;;;;11.70;3.93;;;7.50;99.90;;;;;;5114532;28;20478;-82
2021/12/30 04:07:35;;;;;;;21.33;5.40;;;7.50;99.90;;;;;;5094833;28;20264;-81
2021/12/30 04:10:01;;;;;;;19.40;5.27;;;7.50;99.90;;;;;;5094245;28;20442;-81
2021/12/30 04:12:26;;;;;;;18.23;5.97;;;7.50;99.90;;;;;;5094114;28;20423;-82
2021/12/30 04:14:52;;;;;;;16.83;5.73;;;7.60;99.90;;;;;;5097788;28;20179;-83
2021/12/30 04:17:18;;;;;;;16.93;4.90;;;7.50;99.90;;;;;;5113082;28;20172;-81
2021/12/30 04:19:43;;;;;;;30.77;6.20;;;7.50;99.90;;;;;;5113767;28;20173;-81
2021/12/30 04:22:09;;;;;;;19.27;4.97;;;7.40;99.90;;;;;;5113472;28;20235;-83
2021/12/30 04:24:35;;;;;;;12.90;4.17;;;7.30;99.90;;;;;;5113799;28;20173;-83
2021/12/30 04:27:00;;;;;;;20.67;6.70;;;7.20;99.90;;;;;;5113850;28;20181;-83
2021/12/30 04:29:26;;;;;;;15.30;4.10;;;7.20;99.90;;;;;;5112990;28;20650;-81
2021/12/30 04:31:51;;;;;;;12.90;5.47;;;7.20;99.90;;;;;;5112677;28;20181;-83
2021/12/30 04:34:17;;;;;;;27.33;6.10;;;7.10;99.90;;;;;;5103254;28;20181;-82
2021/12/30 04:36:43;;;;;;;14.97;5.40;;;7.10;99.90;;;;;;5092998;28;20177;-81
2021/12/30 04:39:10;;;;;;;12.23;3.97;;;7.10;99.90;;;;;;5093565;28;20228;-81
2021/12/30 04:41:35;;;;;;;24.03;5.80;;;7.00;99.90;;;;;;5093658;28;20809;-82
2021/12/30 04:44:02;;;;;;;12.67;4.77;;;7.00;99.90;;;;;;5093644;28;20431;-81
2021/12/30 04:46:27;;;;;;;14.83;6.80;;;7.00;99.90;;;;;;5098978;28;20182;-81
2021/12/30 04:48:53;;;;;;;15.97;5.40;;;6.80;99.90;;;;;;5092328;28;20456;-81
2021/12/30 04:51:19;;;;;;;20.97;4.70;;;6.80;99.90;;;;;;5093184;28;20168;-81
2021/12/30 04:53:45;;;;;;;21.40;5.73;;;6.80;99.90;;;;;;5097958;28;20551;-82
2021/12/30 04:56:11;;;;;;;12.90;4.30;;;6.70;99.90;;;;;;5113921;28;20417;-81
2021/12/30 04:58:37;;;;;;;23.67;5.17;;;6.80;99.90;;;;;;5113867;28;20766;-81
2021/12/30 05:01:03;;;;;;;18.80;4.10;;;6.80;99.90;;;;;;5113663;28;20534;-82
2021/12/30 05:03:28;;;;;;;13.80;5.40;;;6.70;99.90;;;;;;5113826;28;20175;-82
2021/12/30 05:05:55;;;;;;;16.17;5.20;;;6.80;99.90;;;;;;5113319;28;20410;-81
2021/12/30 05:08:23;;;;;;;13.73;4.93;;;6.70;99.90;;;;;;5104230;28;20593;-82
2021/12/30 05:10:50;;;;;;;14.07;4.00;;;6.70;99.90;;;;;;5093241;28;20930;-81
2021/12/30 05:13:16;;;;;;;24.87;5.40;;;6.70;99.90;;;;;;5093245;28;20504;-81
2021/12/30 05:15:42;;;;;;;23.03;6.13;;;6.80;99.90;;;;;;5093294;28;20445;-81
2021/12/30 05:18:10;;;;;;;19.97;5.70;;;6.80;99.90;;;;;;5093280;28;20412;-82
2021/12/30 05:20:36;;;;;;;20.70;6.30;;;6.80;99.90;;;;;;5092793;28;20410;-81
2021/12/30 05:23:02;;;;;;;19.47;6.03;;;7.00;99.90;;;;;;5093184;28;20470;-82
2021/12/30 05:25:28;;;;;;;19.10;7.17;;;7.20;99.90;;;;;;5093197;28;20410;-81
2021/12/30 05:27:54;;;;;;;22.20;7.27;;;7.30;99.90;;;;;;5093077;28;20432;-81
2021/12/30 05:30:24;;;;;;;14.47;6.40;;;7.20;99.90;;;;;;5093161;28;20173;-81
2021/12/30 05:32:52;;;;;;;19.60;7.57;;;7.20;99.90;;;;;;5093152;28;20419;-81
2021/12/30 05:35:18;;;;;;;23.23;9.37;;;7.30;99.90;;;;;;5093143;28;20411;-81
2021/12/30 05:37:44;;;;;;;26.87;7.67;;;7.40;99.90;;;;;;5113205;28;20969;-82
2021/12/30 05:40:15;;;;;;;28.93;8.97;;;7.30;99.90;;;;;;5113399;28;20410;-81
2021/12/30 05:42:41;;;;;;;27.53;9.90;;;7.30;99.90;;;;;;5113338;28;20470;-82
2021/12/30 05:45:08;;;;;;;23.67;9.13;;;7.40;99.90;;;;;;5113310;28;20415;-81
2021/12/30 05:47:33;;;;;;;38.17;10.97;;;7.40;99.90;;;;;;5113132;28;20525;-82
2021/12/30 05:50:05;;;;;;;29.00;12.00;;;7.40;99.90;;;;;;5112891;28;20491;-82
2021/12/30 05:52:31;;;;;;;38.47;11.27;;;7.50;99.90;;;;;;5081154;28;20650;-83
2021/12/30 05:54:56;;;;;;;29.40;12.73;;;7.40;99.90;;;;;;5102800;28;20415;-82
2021/12/30 05:57:22;;;;;;;38.70;11.97;;;7.40;99.90;;;;;;5113245;28;20180;-82
2021/12/30 05:59:48;;;;;;;35.90;13.20;;;7.40;99.90;;;;;;5113261;28;20256;-82
2021/12/30 06:02:13;;;;;;;30.73;12.80;;;7.40;99.90;;;;;;5113935;28;20257;-83
2021/12/30 06:04:41;;;;;;;26.97;12.53;;;7.40;99.90;;;;;;5083162;28;20539;-82
2021/12/30 06:07:07;;;;;;;33.30;14.50;;;7.40;99.90;;;;;;5096686;28;20257;-82
2021/12/30 06:09:33;;;;;;;40.03;14.43;;;7.40;99.90;;;;;;5096555;28;20437;-82
2021/12/30 06:11:58;;;;;;;34.90;12.50;;;7.40;99.90;;;;;;5078356;28;20811;-82
2021/12/30 06:14:24;;;;;;;37.20;15.83;;;7.40;99.90;;;;;;5096531;28;20175;-81
2021/12/30 06:16:49;;;;;;;33.43;14.93;;;7.50;99.90;;;;;;5100901;28;20185;-81
2021/12/30 06:19:15;;;;;;;32.00;15.87;;;7.60;99.90;;;;;;5105156;28;20286;-81
2021/12/30 06:21:40;;;;;;;42.53;15.50;;;7.70;99.90;;;;;;5116310;28;20224;-81
2021/12/30 06:24:06;;;;;;;41.70;15.63;;;7.60;99.90;;;;;;5116702;28;20162;-82
2021/12/30 06:26:32;;;;;;;36.63;16.07;;;7.70;99.90;;;;;;5116665;28;20172;-82
2021/12/30 06:28:57;;;;;;;47.93;17.30;;;7.70;99.90;;;;;;5116774;28;20257;-83
2021/12/30 06:31:23;;;;;;;36.70;16.37;;;7.80;99.90;;;;;;5116654;28;20173;-82
2021/12/30 06:33:48;;;;;;;41.03;13.37;;;7.80;99.90;;;;;;5116536;28;20194;-82
2021/12/30 06:36:14;;;;;;;45.47;16.60;;;7.80;99.90;;;;;;5116254;28;20627;-82
2021/12/30 06:38:40;;;;;;;43.60;15.83;;;7.90;99.90;;;;;;5116292;28;20222;-82
2021/12/30 06:41:07;;;;;;;29.07;13.13;;;7.90;99.90;;;;;;5116273;28;20196;-82
2021/12/30 06:43:33;;;;;;;34.00;15.00;;;7.90;99.90;;;;;;5116335;28;20233;-83
2021/12/30 06:46:01;;;;;;;46.03;15.27;;;7.90;99.90;;;;;;5096152;28;20427;-82
2021/12/30 06:48:26;;;;;;;37.53;16.20;;;7.90;99.90;;;;;;5101166;28;20178;-82
2021/12/30 06:50:53;;;;;;;50.10;16.70;;;7.90;99.90;;;;;;5100961;28;20411;-81
2021/12/30 06:53:23;;;;;;;36.20;14.07;;;8.00;99.90;;;;;;5116184;28;20254;-82
2021/12/30 06:55:50;;;;;;;49.70;16.80;;;8.00;99.90;;;;;;5106486;28;20446;-83
2021/12/30 06:58:16;;;;;;;29.73;12.70;;;8.00;99.90;;;;;;5095754;28;20423;-83
2021/12/30 07:00:42;;;;;;;35.63;13.00;;;8.10;99.90;;;;;;5095576;28;20411;-84
2021/12/30 07:03:08;;;;;;;40.33;17.13;;;8.00;99.90;;;;;;5096027;28;20491;-82
2021/12/30 07:05:34;;;;;;;38.27;14.43;;;8.20;99.90;;;;;;5115562;28;20422;-82
2021/12/30 07:08:00;;;;;;;31.93;14.70;;;8.00;99.90;;;;;;5115883;28;20181;-82
2021/12/30 07:10:27;;;;;;;34.57;12.37;;;8.00;99.90;;;;;;5115816;28;20408;-82
2021/12/30 07:12:52;;;;;;;39.40;16.77;;;8.10;99.90;;;;;;5097637;28;20420;-82
2021/12/30 07:15:18;;;;;;;28.83;13.80;;;8.10;99.90;;;;;;5114640;28;21085;-82
2021/12/30 07:17:43;;;;;;;38.83;12.70;;;8.10;99.90;;;;;;5115698;28;20180;-82
2021/12/30 07:20:10;;;;;;;33.97;12.03;;;8.10;99.90;;;;;;5115397;28;20237;-81
2021/12/30 07:22:36;;;;;;;35.83;14.27;;;8.10;99.90;;;;;;5115432;28;20461;-82
2021/12/30 07:25:02;;;;;;;42.33;14.93;;;8.10;99.90;;;;;;5097283;28;20465;-82
2021/12/30 07:27:28;;;;;;;37.53;16.60;;;8.10;99.90;;;;;;5114834;28;20259;-82
2021/12/30 07:29:54;;;;;;;31.27;12.57;;;8.20;99.90;;;;;;5115481;28;20839;-82
2021/12/30 07:32:19;;;;;;;31.70;13.93;;;8.10;99.90;;;;;;5115469;28;20174;-82
2021/12/30 07:34:45;;;;;;;51.97;14.10;;;8.10;99.90;;;;;;5115039;28;20716;-82
2021/12/30 07:37:14;;;;;;;40.53;14.37;;;8.10;99.90;;;;;;5096852;28;20180;-82
2021/12/30 07:39:41;;;;;;;39.00;14.50;;;8.10;99.90;;;;;;5115364;28;20412;-82
2021/12/30 07:42:07;;;;;;;35.10;15.00;;;8.10;99.90;;;;;;5115146;28;20472;-82
2021/12/30 07:44:32;;;;;;;33.60;12.73;;;8.10;99.90;;;;;;5096956;28;20423;-81
2021/12/30 07:46:58;;;;;;;31.33;14.10;;;8.10;99.90;;;;;;5096408;28;20439;-82
2021/12/30 07:49:24;;;;;;;35.77;13.70;;;8.10;99.90;;;;;;5097968;28;20261;-82
2021/12/30 07:51:49;;;;;;;36.33;15.30;;;8.20;99.90;;;;;;5110362;28;20193;-83
2021/12/30 07:54:15;;;;;;;35.57;14.13;;;8.10;99.90;;;;;;5076293;28;20179;-82
2021/12/30 07:56:40;;;;;;;43.20;15.37;;;8.10;99.90;;;;;;5100639;28;20294;-83
2021/12/30 07:59:06;;;;;;;41.73;15.83;;;8.10;99.90;;;;;;5114791;28;20253;-82
2021/12/30 08:01:32;;;;;;;37.50;16.30;;;8.10;99.90;;;;;;5114115;28;20583;-82
2021/12/30 08:03:57;;;;;;;37.77;14.90;;;8.10;99.90;;;;;;5094107;28;20175;-82
2021/12/30 08:06:26;;;;;;;48.57;15.33;;;8.20;99.90;;;;;;5094035;28;20231;-83
2021/12/30 08:08:52;;;;;;;43.40;15.60;;;8.20;99.90;;;;;;5094180;28;20210;-82
2021/12/30 08:11:17;;;;;;;39.63;14.67;;;8.20;99.90;;;;;;5094242;28;20825;-81
2021/12/30 08:13:43;;;;;;;33.90;14.63;;;8.30;99.90;;;;;;5094243;28;20179;-81
2021/12/30 08:16:08;;;;;;;44.23;17.23;;;8.30;99.90;;;;;;5094224;28;20171;-81
2021/12/30 08:18:34;;;;;;;43.93;16.17;;;8.20;99.90;;;;;;5075964;28;20228;-83
2021/12/30 08:21:00;;;;;;;30.97;14.10;;;8.20;99.90;;;;;;5093653;28;20590;-82
2021/12/30 08:23:25;;;;;;;33.10;14.23;;;8.20;99.90;;;;;;5094054;28;20209;-82
2021/12/30 08:25:51;;;;;;;30.53;13.53;;;8.30;99.90;;;;;;5093703;28;20178;-82
2021/12/30 08:28:21;;;;;;;31.73;15.53;;;8.30;99.90;;;;;;5093945;28;20175;-81
2021/12/30 08:30:47;;;;;;;44.23;15.37;;;8.30;99.90;;;;;;5093868;28;20163;-82
2021/12/30 08:33:12;;;;;;;33.00;12.10;;;8.30;99.90;;;;;;5093789;28;20413;-81
2021/12/30 08:35:38;;;;;;;39.57;16.27;;;8.40;99.90;;;;;;5093398;28;20178;-82
2021/12/30 08:38:04;;;;;;;44.60;15.57;;;8.40;99.90;;;;;;5093619;28;20211;-82
2021/12/30 08:40:30;;;;;;;36.70;13.80;;;8.50;99.90;;;;;;5093841;28;20572;-83
2021/12/30 08:42:56;;;;;;;40.33;15.50;;;8.50;99.90;;;;;;5094134;28;20203;-85
2021/12/30 08:45:22;;;;;;;50.33;15.57;;;8.50;99.90;;;;;;5076304;28;20410;-85
2021/12/30 08:47:48;;;;;;;34.47;13.27;;;8.50;99.90;;;;;;5095835;28;20831;-85
2021/12/30 08:50:16;;;;;;;45.33;15.97;;;8.50;99.90;;;;;;5113590;28;20174;-84
2021/12/30 08:52:43;;;;;;;33.27;14.43;;;8.60;99.90;;;;;;5101653;28;20418;-83
2021/12/30 08:55:11;;;;;;;29.87;14.40;;;8.70;99.90;;;;;;5093488;28;20474;-84
2021/12/30 08:57:38;;;;;;;37.53;13.90;;;8.80;99.90;;;;;;5112093;28;20797;-83
2021/12/30 09:00:08;;;;;;;35.13;13.23;;;8.90;99.90;;;;;;5113793;28;20415;-84
2021/12/30 09:02:34;;;;;;;42.53;15.50;;;8.90;99.90;;;;;;5095334;28;20469;-84
2021/12/30 09:04:59;;;;;;;24.83;13.07;;;9.00;99.90;;;;;;5107739;28;20418;-83
2021/12/30 09:07:25;;;;;;;27.50;10.80;;;8.90;99.90;;;;;;5112089;28;20186;-84
2021/12/30 09:09:50;;;;;;;31.03;13.00;;;8.90;99.90;;;;;;5113687;28;20163;-83
2021/12/30 09:12:18;;;;;;;30.83;12.97;;;8.90;99.90;;;;;;5113662;28;20529;-84
2021/12/30 09:14:43;;;;;;;34.90;14.50;;;8.90;99.90;;;;;;5076956;28;20651;-83
2021/12/30 09:17:09;;;;;;;27.10;11.87;;;8.90;99.90;;;;;;5075228;28;20507;-83
2021/12/30 09:19:35;;;;;;;32.30;12.70;;;8.90;99.90;;;;;;5092903;28;20746;-83
2021/12/30 09:22:01;;;;;;;32.70;11.53;;;8.90;99.90;;;;;;5093101;28;20755;-83
2021/12/30 09:24:27;;;;;;;36.97;13.40;;;8.90;99.90;;;;;;5093114;28;20422;-83
2021/12/30 09:26:52;;;;;;;30.93;12.17;;;9.00;99.90;;;;;;5093164;28;20963;-84
2021/12/30 09:29:18;;;;;;;48.83;15.43;;;9.00;99.90;;;;;;5110310;28;20183;-84
2021/12/30 09:31:47;;;;;;;46.33;14.80;;;9.00;99.90;;;;;;5113530;28;20526;-84
2021/12/30 09:34:13;;;;;;;37.60;13.47;;;9.10;99.90;;;;;;5113094;28;20178;-84
2021/12/30 09:36:39;;;;;;;50.03;15.50;;;9.10;99.90;;;;;;5113408;28;20416;-83
2021/12/30 09:39:08;;;;;;;41.03;16.97;;;9.10;99.90;;;;;;5117374;28;20456;-84
2021/12/30 09:41:35;;;;;;;41.97;15.73;;;9.10;99.90;;;;;;5117402;28;20210;-84
2021/12/30 09:44:00;;;;;;;46.37;13.20;;;9.10;99.90;;;;;;5117532;28;20504;-83
2021/12/30 09:46:26;;;;;;;36.43;13.67;;;9.10;99.90;;;;;;5112638;28;20521;-83
2021/12/30 09:48:52;;;;;;;31.27;13.47;;;9.10;99.90;;;;;;5113412;28;20625;-83
2021/12/30 09:51:20;;;;;;;38.23;13.87;;;9.20;99.90;;;;;;5117063;28;20421;-82
2021/12/30 09:53:49;;;;;;;38.70;14.80;;;9.20;99.90;;;;;;5117342;28;20170;-84
2021/12/30 09:56:15;;;;;;;34.93;14.47;;;9.10;99.90;;;;;;5108655;28;20426;-83
2021/12/30 09:58:41;;;;;;;42.03;15.40;;;9.20;99.90;;;;;;5078809;28;20449;-83
2021/12/30 10:01:06;;;;;;;35.17;13.23;;;9.20;99.90;;;;;;5117005;28;20200;-83
2021/12/30 10:03:35;;;;;;;40.10;14.27;;;9.20;99.90;;;;;;5104488;28;20187;-83
2021/12/30 10:06:10;;;;;;;43.33;13.67;;;9.20;99.90;;;;;;5086147;28;20187;-84
2021/12/30 10:08:41;;;;;;;42.87;14.53;;;9.20;99.90;;;;;;5116989;28;20468;-83
2021/12/30 10:11:14;;;;;;;37.53;13.67;;;9.20;99.90;;;;;;5117133;28;20404;-84
2021/12/30 10:14:01;;;;;;;31.43;12.40;;;9.20;99.90;;;;;;5115905;28;20412;-84
2021/12/30 10:16:27;;;;;;;26.37;10.63;;;9.10;99.90;;;;;;5119346;28;20408;-83
2021/12/30 10:19:00;;;;;;;24.57;12.27;;;9.20;99.90;;;;;;5116826;28;20415;-83
2021/12/30 10:21:34;;;;;;;31.40;12.37;;;9.10;99.90;;;;;;5116688;28;20199;-83
2021/12/30 10:24:03;;;;;;;24.77;10.87;;;9.10;99.90;;;;;;5116667;28;20791;-83
2021/12/30 10:26:29;;;;;;;25.27;11.10;;;9.20;99.90;;;;;;5098308;28;20408;-84
2021/12/30 10:28:59;;;;;;;27.33;11.03;;;9.20;99.90;;;;;;5098263;28;20800;-83
2021/12/30 10:31:28;;;;;;;22.80;9.97;;;9.20;99.90;;;;;;5098391;28;20658;-83
2021/12/30 10:33:57;;;;;;;22.93;10.07;;;9.20;99.90;;;;;;5116494;28;20408;-83
2021/12/30 10:36:44;;;;;;;25.70;10.23;;;9.20;99.90;;;;;;5116617;28;20499;-83
2021/12/30 10:39:25;;;;;;;25.37;9.53;;;9.20;99.90;;;;;;5115097;28;21035;-84
2021/12/30 10:42:16;;;;;;;39.23;11.10;;;9.20;99.90;;;;;;5116373;28;20583;-84
2021/12/30 10:44:55;;;;;;;20.57;9.47;;;9.40;99.90;;;;;;5116491;28;20474;-83
2021/12/30 10:47:23;;;;;;;22.53;10.33;;;9.30;99.90;;;;;;5095000;28;20452;-83
2021/12/30 10:50:05;;;;;;;22.47;9.63;;;9.30;99.90;;;;;;5108589;28;20415;-84
2021/12/30 10:52:32;;;;;;;23.40;10.00;;;9.40;99.90;;;;;;5095955;28;20926;-83
2021/12/30 10:54:59;;;;;;;20.30;8.70;;;9.40;99.90;;;;;;5095714;28;20396;-83
2021/12/30 10:57:30;;;;;;;20.13;8.60;;;9.50;99.90;;;;;;5095512;28;20416;-83
2021/12/30 10:59:56;;;;;;;26.10;8.97;;;9.50;99.90;;;;;;5095661;28;20441;-83
2021/12/30 11:02:23;;;;;;;22.87;9.50;;;9.60;99.90;;;;;;5077495;28;20836;-83
2021/12/30 11:04:56;;;;;;;16.63;8.20;;;9.60;99.90;;;;;;5095161;28;20427;-84
2021/12/30 11:07:38;;;;;;;13.10;7.93;;;9.70;99.90;;;;;;5095542;28;20411;-84
2021/12/30 11:10:05;;;;;;;14.90;6.43;;;9.70;99.90;;;;;;5095628;28;20421;-84
2021/12/30 11:12:34;;;;;;;19.33;7.27;;;9.70;99.90;;;;;;5095464;28;20839;-84
2021/12/30 11:15:05;;;;;;;20.03;8.53;;;9.70;99.90;;;;;;5095487;28;20460;-84
2021/12/30 11:17:36;;;;;;;20.03;7.07;;;9.80;99.90;;;;;;5114201;28;20480;-84
2021/12/30 11:20:07;;;;;;;15.30;7.03;;;9.80;99.90;;;;;;5115471;28;20416;-83
2021/12/30 11:22:35;;;;;;;18.33;7.23;;;9.90;99.90;;;;;;5103077;28;20474;-83
2021/12/30 11:25:03;;;;;;;14.57;7.40;;;10.00;99.90;;;;;;5095193;28;20414;-84
2021/12/30 11:27:30;;;;;;;15.93;6.10;;;9.90;99.90;;;;;;5095075;28;20507;-84
2021/12/30 11:29:59;;;;;;;11.10;5.20;;;10.00;99.90;;;;;;5095138;28;20411;-84
2021/12/30 11:32:31;;;;;;;10.33;5.10;;;10.10;99.90;;;;;;5102500;28;20426;-84
2021/12/30 11:34:58;;;;;;;11.70;4.03;;;10.10;99.90;;;;;;5115075;28;20434;-84
2021/12/30 11:37:24;;;;;;;8.53;4.80;;;10.20;99.90;;;;;;5096879;28;20459;-83
2021/12/30 11:39:53;;;;;;;10.30;5.50;;;10.20;99.90;;;;;;5115367;28;20410;-84
2021/12/30 11:42:26;;;;;;;10.60;3.73;;;10.20;99.90;;;;;;5115059;28;20469;-84
2021/12/30 11:45:00;;;;;;;8.63;2.90;;;10.30;99.90;;;;;;5115138;28;20493;-84
2021/12/30 11:47:36;;;;;;;6.87;2.83;;;10.40;99.90;;;;;;5113850;28;20925;-84
2021/12/30 11:50:26;;;;;;;7.30;3.47;;;10.40;99.90;;;;;;5094277;28;20426;-84
2021/12/30 11:52:56;;;;;;;7.83;2.23;;;10.50;99.90;;;;;;5100596;28;20479;-84
2021/12/30 11:56:00;;;;;;;5.67;3.33;;;10.50;99.90;;;;;;5115092;28;20447;-84
2021/12/30 11:58:28;;;;;;;5.23;2.80;;;10.60;99.90;;;;;;5113641;28;20413;-84
2021/12/30 12:01:00;;;;;;;5.40;3.30;;;10.70;99.90;;;;;;5114227;28;20492;-84
2021/12/30 12:03:30;;;;;;;3.93;1.77;;;10.60;99.90;;;;;;5104152;28;20466;-84
2021/12/30 12:05:56;;;;;;;4.70;1.90;;;10.60;99.90;;;;;;5114419;28;20499;-84
2021/12/30 12:08:28;;;;;;;4.70;2.30;;;10.60;99.90;;;;;;5114723;28;20988;-83
2021/12/30 12:11:13;;;;;;;4.57;2.33;;;10.70;99.90;;;;;;5096359;28;20647;-83
2021/12/30 12:13:41;;;;;;;3.90;1.50;;;10.80;99.90;;;;;;5114661;28;20410;-83
2021/12/30 12:16:07;;;;;;;3.57;1.40;;;10.70;99.90;;;;;;5096342;28;20402;-84
2021/12/30 12:18:33;;;;;;;4.10;1.77;;;10.80;99.90;;;;;;5114508;28;20890;-83
2021/12/30 12:21:04;;;;;;;2.73;0.97;;;10.80;99.90;;;;;;5114138;28;20168;-84
2021/12/30 12:23:33;;;;;;;6.60;1.20;;;10.80;99.90;;;;;;5114478;28;20423;-83
2021/12/30 12:26:20;;;;;;;1.80;0.70;;;10.90;99.90;;;;;;5114535;28;20398;-83
2021/12/30 12:28:47;;;;;;;3.80;1.57;;;10.90;99.90;;;;;;5114389;28;20446;-84
2021/12/30 12:31:13;;;;;;;3.30;0.63;;;10.90;99.90;;;;;;5114339;28;20831;-84
2021/12/30 12:33:41;;;;;;;3.07;1.03;;;11.00;99.90;;;;;;5113981;28;20447;-84
2021/12/30 12:36:15;;;;;;;2.03;0.73;;;10.90;99.90;;;;;;5114232;28;20172;-83
2021/12/30 12:38:48;;;;;;;2.50;0.93;;;10.90;99.90;;;;;;5114076;28;20461;-83
2021/12/30 12:41:23;;;;;;;4.20;0.93;;;11.00;99.90;;;;;;5114123;28;20913;-84
2021/12/30 12:43:57;;;;;;;1.57;0.60;;;11.00;99.90;;;;;;5112862;28;20432;-83
2021/12/30 12:46:46;;;;;;;1.70;0.80;;;11.00;99.90;;;;;;5113794;28;20926;-83